Time,TemperatureF,DewpointF,PressureIn,WindDirection,WindDirectionDegrees,WindSpeedMPH,WindSpeedGustMPH,Humidity,HourlyPrecipIn,Conditions,Clouds,dailyrainin,SoftwareType,DateUTC
2013-03-01 00:00:00,43.0,-99.9,-100.00,SSW,209,9.0,-999.0,-999,-99.99,,,-99.99,,2013-03-01 08:00:00,
2013-03-01 01:00:00,42.0,-99.9,-100.00,SW,218,9.0,-999.0,-999,-99.99,,,-99.99,,2013-03-01 09:00:00,
2013-03-01 02:00:00,43.0,-99.9,-100.00,SW,232,9.0,-999.0,-999,-99.99,,,-99.99,,2013-03-01 10:00:00,
2013-03-01 02:53:00,43.0,-99.9,-100.00,SW,232,9.0,-999.0,-999,-99.99,,,-99.99,,2013-03-01 10:53:00,
2013-03-01 03:00:00,43.0,-99.9,-100.00,SW,219,7.0,-999.0,-999,-99.99,,,-99.99,,2013-03-01 11:00:00,
2013-03-01 04:00:00,43.0,-99.9,-100.00,SW,235,9.0,-999.0,-999,-99.99,,,-99.99,,2013-03-01 12:00:00,
2013-03-01 05:00:00,42.0,-99.9,-100.00,SW,231,7.0,-999.0,-999,-99.99,,,-99.99,,2013-03-01 13:00:00,
2013-03-01 06:00:00,42.0,-99.9,-100.00,SSW,202,5.0,-999.0,-999,-99.99,,,-99.99,,2013-03-01 14:00:00,
2013-03-01 07:00:00,43.0,-99.9,-100.00,SW,217,5.0,-999.0,-999,-99.99,,,-99.99,,2013-03-01 15:00:00,
2013-03-01 08:00:00,42.0,-99.9,-100.00,SW,230,7.0,-999.0,-999,-99.99,,,-99.99,,2013-03-01 16:00:00,
2013-03-01 08:52:00,42.0,-99.9,-100.00,SW,230,7.0,-999.0,-999,-99.99,,,-99.99,,2013-03-01 16:52:00,
2013-03-01 09:00:00,45.0,-99.9,-100.00,SW,227,8.0,-999.0,-999,-99.99,,,-99.99,,2013-03-01 17:00:00,
2013-03-01 10:00:00,47.0,-99.9,-100.00,SW,218,9.0,-999.0,-999,-99.99,,,-99.99,,2013-03-01 18:00:00,
2013-03-01 11:00:00,51.0,-99.9,-100.00,SW,220,7.0,-999.0,-999,-99.99,,,-99.99,,2013-03-01 19:00:00,
2013-03-01 12:00:00,53.0,-99.9,-100.00,WSW,248,7.0,-999.0,-999,-99.99,,,-99.99,,2013-03-01 20:00:00,
2013-03-01 12:52:00,53.0,-99.9,-100.00,WSW,248,7.0,-999.0,-999,-99.99,,,-99.99,,2013-03-01 20:52:00,
2013-03-01 13:00:00,54.0,-99.9,-100.00,WSW,241,9.0,-999.0,-999,-99.99,,,-99.99,,2013-03-01 21:00:00,
2013-03-01 14:00:00,57.0,-99.9,-100.00,SW,231,7.0,-999.0,-999,-99.99,,,-99.99,,2013-03-01 22:00:00,
2013-03-01 14:52:00,57.0,-99.9,-100.00,SW,231,7.0,-999.0,-999,-99.99,,,-99.99,,2013-03-01 22:52:00,
2013-03-01 15:00:00,58.0,-99.9,-100.00,WSW,238,8.0,-999.0,-999,-99.99,,,-99.99,,2013-03-01 23:00:00,
2013-03-01 16:00:00,59.0,-99.9,-100.00,SW,227,7.0,-999.0,-999,-99.99,,,-99.99,,2013-03-02 00:00:00,
2013-03-01 17:00:00,59.0,-99.9,-100.00,SW,222,7.0,-999.0,-999,-99.99,,,-99.99,,2013-03-02 01:00:00,
2013-03-01 18:00:00,57.0,-99.9,-100.00,SW,215,6.0,-999.0,-999,-99.99,,,-99.99,,2013-03-02 02:00:00,
2013-03-01 19:00:00,52.0,-99.9,-100.00,SW,222,2.0,-999.0,-999,-99.99,,,-99.99,,2013-03-02 03:00:00,
2013-03-01 20:00:00,47.0,-99.9,-100.00,WSW,255,3.0,-999.0,-999,-99.99,,,-99.99,,2013-03-02 04:00:00,
2013-03-01 20:52:00,47.0,-99.9,-100.00,WSW,255,3.0,-999.0,-999,-99.99,,,-99.99,,2013-03-02 04:52:00,
2013-03-01 21:00:00,44.0,-99.9,-100.00,SW,219,3.0,-999.0,-999,-99.99,,,-99.99,,2013-03-02 05:00:00,
2013-03-01 22:00:00,40.0,-99.9,-100.00,SSE,168,2.0,-999.0,-999,-99.99,,,-99.99,,2013-03-02 06:00:00,
2013-03-01 23:00:00,45.0,-99.9,-100.00,SW,229,7.0,-999.0,-999,-99.99,,,-99.99,,2013-03-02 07:00:00,
2013-03-01 23:52:00,45.0,-99.9,-100.00,SW,229,7.0,-999.0,-999,-99.99,,,-99.99,,2013-03-02 07:52:00,